Time;durP1;ratioP1;P1;durP2;ratioP2;P2;SDS_P1;SDS_P2;PMS_P1;PMS_P2;Temp;Humidity;BMP_temperature;BMP_pressure;BME280_temperature;BME280_humidity;BME280_pressure;Samples;Min_cycle;Max_cycle;Signal;HPM_P1;HPM_P2
2023/01/20 00:02:15;;;;;;;2.42;2.00;;;1.10;99.90;;;;;;5040457;28;20373;-67
2023/01/20 00:04:41;;;;;;;2.58;2.38;;;1.00;99.90;;;;;;5074550;28;20052;-67
2023/01/20 00:07:07;;;;;;;2.60;2.33;;;1.00;99.90;;;;;;5074123;28;20197;-67
2023/01/20 00:09:32;;;;;;;2.42;2.22;;;1.00;99.90;;;;;;5074522;28;20040;-67
2023/01/20 00:11:58;;;;;;;3.75;2.50;;;0.90;99.90;;;;;;5074305;28;20520;-67
2023/01/20 00:14:24;;;;;;;2.15;2.00;;;0.90;99.90;;;;;;5074229;28;20045;-67
2023/01/20 00:16:50;;;;;;;2.97;2.42;;;0.90;99.90;;;;;;5056935;28;20136;-67
2023/01/20 00:19:16;;;;;;;2.78;2.38;;;0.90;99.90;;;;;;5039997;28;20124;-67
2023/01/20 00:21:42;;;;;;;3.63;2.30;;;1.30;99.90;;;;;;5074143;28;20044;-67
2023/01/20 00:24:07;;;;;;;3.30;2.97;;;1.30;99.90;;;;;;5075011;28;20044;-67
2023/01/20 00:26:33;;;;;;;5.38;2.40;;;0.90;99.90;;;;;;5057164;28;20127;-67
2023/01/20 00:28:59;;;;;;;2.70;2.50;;;0.90;99.90;;;;;;5074620;28;20043;-66
2023/01/20 00:31:27;;;;;;;2.95;2.60;;;0.90;99.90;;;;;;5074347;28;20051;-67
2023/01/20 00:33:55;;;;;;;2.65;2.45;;;0.90;99.90;;;;;;5074611;28;20114;-67
2023/01/20 00:36:23;;;;;;;3.83;2.15;;;0.90;99.90;;;;;;5056397;28;20063;-67
2023/01/20 00:38:48;;;;;;;2.45;2.25;;;0.90;99.90;;;;;;5073789;28;20052;-67
2023/01/20 00:41:15;;;;;;;3.92;3.00;;;0.90;99.90;;;;;;5074390;28;20045;-67
2023/01/20 00:43:41;;;;;;;3.60;2.38;;;0.90;99.90;;;;;;5056302;28;20056;-67
2023/01/20 00:46:07;;;;;;;4.38;2.83;;;1.00;99.90;;;;;;5073638;28;20181;-67
2023/01/20 00:48:33;;;;;;;3.58;2.83;;;0.90;99.90;;;;;;5073838;28;20509;-67
2023/01/20 00:50:59;;;;;;;4.93;3.08;;;1.10;99.90;;;;;;5073641;28;20044;-67
2023/01/20 00:53:25;;;;;;;4.70;3.30;;;0.90;99.90;;;;;;5073707;28;20036;-67
2023/01/20 00:55:51;;;;;;;4.05;3.40;;;0.90;99.90;;;;;;5073649;28;20048;-67
2023/01/20 00:58:17;;;;;;;3.83;3.35;;;0.90;99.90;;;;;;5073569;28;20051;-67
2023/01/20 01:00:45;;;;;;;3.95;3.17;;;1.10;99.90;;;;;;5073419;28;20479;-67
2023/01/20 01:03:10;;;;;;;5.88;3.90;;;0.90;99.90;;;;;;5073264;28;20063;-67
2023/01/20 01:05:36;;;;;;;4.32;3.92;;;1.10;99.90;;;;;;5073135;28;20453;-67
2023/01/20 01:08:02;;;;;;;4.68;3.40;;;1.00;99.90;;;;;;5072983;28;20049;-67
2023/01/20 01:10:28;;;;;;;7.22;4.68;;;1.00;99.90;;;;;;5073339;28;20040;-67
2023/01/20 01:12:54;;;;;;;4.28;3.88;;;1.00;99.90;;;;;;5073685;28;20052;-67
2023/01/20 01:15:19;;;;;;;17.83;4.95;;;1.00;99.90;;;;;;5073805;28;20051;-67
2023/01/20 01:17:45;;;;;;;5.63;4.80;;;1.60;99.90;;;;;;5073629;28;20040;-67
2023/01/20 01:20:12;;;;;;;4.55;4.07;;;1.00;99.90;;;;;;5073385;28;20041;-67
2023/01/20 01:22:38;;;;;;;7.88;5.65;;;1.00;99.90;;;;;;5073396;28;20373;-67
2023/01/20 01:25:04;;;;;;;6.60;5.38;;;1.00;99.90;;;;;;5074275;28;20494;-67
2023/01/20 01:27:30;;;;;;;8.75;6.82;;;1.00;99.90;;;;;;5073095;28;20044;-67
2023/01/20 01:29:56;;;;;;;6.95;5.57;;;1.00;99.90;;;;;;5073908;28;20093;-67
2023/01/20 01:32:22;;;;;;;8.30;6.03;;;1.10;99.90;;;;;;5073157;28;20036;-67
2023/01/20 01:34:48;;;;;;;8.52;6.35;;;1.40;99.90;;;;;;5073304;28;20045;-67
2023/01/20 01:37:13;;;;;;;9.38;6.57;;;1.00;99.90;;;;;;5073916;28;20041;-67
2023/01/20 01:39:39;;;;;;;8.45;6.90;;;1.10;99.90;;;;;;5073738;28;20450;-67
2023/01/20 01:42:14;;;;;;;9.02;7.07;;;2.00;99.90;;;;;;5055604;28;20050;-67
2023/01/20 01:45:11;;;;;;;9.88;7.03;;;1.40;99.90;;;;;;5073033;28;20082;-67
2023/01/20 01:47:41;;;;;;;8.82;7.50;;;1.10;99.90;;;;;;5073065;28;20155;-67
2023/01/20 01:50:10;;;;;;;11.20;8.70;;;1.60;99.90;;;;;;5073023;28;20477;-67
2023/01/20 01:52:37;;;;;;;8.48;7.28;;;1.20;99.90;;;;;;5055092;28;20389;-67
2023/01/20 01:55:03;;;;;;;12.07;8.48;;;1.20;99.90;;;;;;5073000;28;20045;-67
2023/01/20 01:57:31;;;;;;;8.50;7.00;;;1.20;99.90;;;;;;5072854;28;20123;-67
2023/01/20 01:59:56;;;;;;;11.75;7.72;;;1.20;99.90;;;;;;5072496;28;20049;-67
2023/01/20 02:02:22;;;;;;;11.10;7.55;;;1.70;99.90;;;;;;5072725;28;20119;-67
2023/01/20 02:04:48;;;;;;;10.70;7.28;;;1.30;99.90;;;;;;5072501;28;20041;-67
2023/01/20 02:07:19;;;;;;;11.05;8.25;;;1.20;99.90;;;;;;5073096;28;20037;-67
2023/01/20 02:09:45;;;;;;;12.85;9.02;;;1.30;99.90;;;;;;5072412;28;20109;-67
2023/01/20 02:12:15;;;;;;;9.63;8.57;;;1.30;99.90;;;;;;5072421;28;20044;-67
2023/01/20 02:14:49;;;;;;;10.07;8.40;;;1.30;99.90;;;;;;5075046;28;20469;-67
2023/01/20 02:17:59;;;;;;;12.77;9.68;;;1.40;99.90;;;;;;5076077;28;20461;-67
2023/01/20 02:20:53;;;;;;;12.38;9.07;;;1.30;99.90;;;;;;5031369;28;20445;-67
2023/01/20 02:23:36;;;;;;;;;;;1.40;99.90;;;;;;5077137;28;20123;-67
2023/01/20 02:26:11;;;;;;;11.60;9.23;;;1.30;99.90;;;;;;5058203;28;20353;-67
2023/01/20 02:28:40;;;;;;;10.25;9.00;;;2.20;99.90;;;;;;5058716;28;20045;-67
2023/01/20 02:31:16;;;;;;;11.52;8.82;;;1.40;99.90;;;;;;5075904;28;20045;-67
2023/01/20 02:33:48;;;;;;;12.90;9.10;;;1.50;99.90;;;;;;5076038;28;20458;-67
2023/01/20 02:36:46;;;;;;;14.00;9.45;;;1.50;99.90;;;;;;5076212;28;20338;-67
2023/01/20 02:39:45;;;;;;;13.23;8.90;;;1.90;99.90;;;;;;5075176;28;20136;-67
2023/01/20 02:42:18;;;;;;;10.55;9.38;;;1.80;99.90;;;;;;5058739;28;20044;-67
2023/01/20 02:44:58;;;;;;;14.13;10.85;;;1.60;99.90;;;;;;5076133;28;20079;-67
2023/01/20 02:47:51;;;;;;;11.25;8.50;;;1.50;99.90;;;;;;5042291;28;20040;-67
2023/01/20 02:51:04;;;;;;;10.48;8.32;;;1.60;99.90;;;;;;5058341;28;20050;-67
2023/01/20 02:53:52;;;;;;;10.10;8.35;;;1.50;99.90;;;;;;5039287;28;20044;-67
2023/01/20 02:56:22;;;;;;;11.88;9.45;;;2.30;99.90;;;;;;5075485;28;20041;-67
2023/01/20 02:58:56;;;;;;;12.73;9.23;;;1.60;99.90;;;;;;5075704;28;20123;-67
2023/01/20 03:01:30;;;;;;;9.48;7.15;;;1.60;99.90;;;;;;5076748;28;20041;-67
2023/01/20 03:04:00;;;;;;;11.85;9.13;;;1.70;99.90;;;;;;5074602;28;20135;-68
2023/01/20 03:06:30;;;;;;;10.13;7.88;;;1.70;99.90;;;;;;5058356;28;20050;-69
2023/01/20 03:08:59;;;;;;;14.00;8.25;;;1.70;99.90;;;;;;5076059;28;20052;-68
2023/01/20 03:11:26;;;;;;;8.68;7.78;;;1.70;99.90;;;;;;5058187;28;20071;-67
2023/01/20 03:14:03;;;;;;;10.43;8.98;;;1.70;99.90;;;;;;5075287;28;20048;-68
2023/01/20 03:16:29;;;;;;;10.98;9.13;;;1.80;99.90;;;;;;5075782;28;20048;-67
2023/01/20 03:18:55;;;;;;;13.00;9.60;;;1.70;99.90;;;;;;5075755;28;20044;-67
2023/01/20 03:21:21;;;;;;;9.43;8.52;;;1.70;99.90;;;;;;5075788;28;20062;-67
2023/01/20 03:23:51;;;;;;;12.68;9.55;;;2.80;99.90;;;;;;5075010;28;20041;-67
2023/01/20 03:26:18;;;;;;;12.77;9.95;;;1.60;99.90;;;;;;5073770;28;20461;-67
2023/01/20 03:28:47;;;;;;;13.68;9.32;;;1.60;99.90;;;;;;5075098;28;20036;-67
2023/01/20 03:31:27;;;;;;;12.73;9.65;;;1.60;99.90;;;;;;5057283;28;20468;-67
2023/01/20 03:33:56;;;;;;;12.65;10.70;;;2.40;99.90;;;;;;5075576;28;20044;-68
2023/01/20 03:36:24;;;;;;;12.60;9.75;;;1.50;99.90;;;;;;5074896;28;20047;-67
2023/01/20 03:38:52;;;;;;;12.43;9.73;;;1.80;99.90;;;;;;5074827;28;20091;-67
2023/01/20 03:41:33;;;;;;;14.30;10.52;;;1.50;99.90;;;;;;5057156;28;20362;-67
2023/01/20 03:44:26;;;;;;;14.93;11.90;;;1.60;99.90;;;;;;5074948;28;20562;-67
2023/01/20 03:47:11;;;;;;;14.77;11.43;;;1.40;99.90;;;;;;5074571;28;20036;-67
2023/01/20 03:50:01;;;;;;;14.52;11.77;;;1.40;99.90;;;;;;5040376;28;20044;-67
2023/01/20 03:52:56;;;;;;;14.98;11.50;;;1.50;99.90;;;;;;5075741;28;20044;-67
2023/01/20 03:55:34;;;;;;;15.05;12.10;;;2.50;99.90;;;;;;5074801;28;20532;-67
2023/01/20 03:58:03;;;;;;;16.92;13.25;;;1.40;99.90;;;;;;5057976;28;20123;-67
2023/01/20 04:00:34;;;;;;;19.33;14.05;;;1.40;99.90;;;;;;5074524;28;20359;-67
2023/01/20 04:03:06;;;;;;;16.63;13.00;;;1.40;99.90;;;;;;5074849;28;20044;-67
2023/01/20 04:05:33;;;;;;;15.35;11.25;;;1.50;99.90;;;;;;5074500;28;20098;-67
2023/01/20 04:08:04;;;;;;;20.67;14.85;;;1.40;99.90;;;;;;5074302;28;20048;-68
2023/01/20 04:10:34;;;;;;;21.30;14.35;;;1.70;99.90;;;;;;5074191;28;20105;-67
2023/01/20 04:12:59;;;;;;;18.65;12.68;;;1.40;99.90;;;;;;5056580;28;20037;-67
2023/01/20 04:15:27;;;;;;;19.75;13.77;;;1.40;99.90;;;;;;5074446;28;20101;-67
2023/01/20 04:17:53;;;;;;;18.33;14.05;;;1.40;99.90;;;;;;5074266;28;20055;-67
2023/01/20 04:20:18;;;;;;;16.33;12.25;;;1.40;99.90;;;;;;5074536;28;20037;-67
2023/01/20 04:22:57;;;;;;;19.17;13.05;;;2.40;99.90;;;;;;5074188;28;20097;-67
2023/01/20 04:25:28;;;;;;;18.15;12.98;;;1.40;99.90;;;;;;5056746;28;20037;-67
2023/01/20 04:27:54;;;;;;;18.55;12.95;;;1.40;99.90;;;;;;5057359;28;20102;-67
2023/01/20 04:30:20;;;;;;;18.55;13.27;;;1.50;99.90;;;;;;5057184;28;20461;-67
2023/01/20 04:32:46;;;;;;;15.45;12.18;;;1.50;99.90;;;;;;5056309;28;20040;-67
2023/01/20 04:35:13;;;;;;;21.02;13.07;;;1.50;99.90;;;;;;5073868;28;20465;-67
2023/01/20 04:37:39;;;;;;;16.95;12.35;;;2.40;99.90;;;;;;5073544;28;20063;-67
2023/01/20 04:40:05;;;;;;;19.33;13.38;;;1.50;99.90;;;;;;5073955;28;20094;-67
2023/01/20 04:42:31;;;;;;;18.30;11.50;;;1.60;99.90;;;;;;5073965;28;20036;-67
2023/01/20 04:44:57;;;;;;;20.23;12.00;;;2.00;99.90;;;;;;5073999;28;20037;-67
2023/01/20 04:47:23;;;;;;;19.65;13.75;;;1.60;99.90;;;;;;5073802;28;20052;-67
2023/01/20 04:49:49;;;;;;;15.50;12.15;;;1.60;99.90;;;;;;5073933;28;20045;-67
2023/01/20 04:52:15;;;;;;;16.25;12.00;;;1.60;99.90;;;;;;5073881;28;20245;-67
2023/01/20 04:54:41;;;;;;;16.63;11.27;;;1.60;99.90;;;;;;5055932;28;20040;-67
2023/01/20 04:57:07;;;;;;;17.33;12.40;;;1.50;99.90;;;;;;5056201;28;20051;-67
2023/01/20 04:59:33;;;;;;;17.98;11.52;;;1.70;99.90;;;;;;5073570;28;20542;-67
2023/01/20 05:01:58;;;;;;;17.85;11.68;;;1.80;99.90;;;;;;5073757;28;20075;-67
2023/01/20 05:04:24;;;;;;;18.50;12.35;;;1.70;99.90;;;;;;5073809;28;20039;-67
2023/01/20 05:06:50;;;;;;;15.82;11.43;;;1.50;99.90;;;;;;5073386;28;20086;-67
2023/01/20 05:09:15;;;;;;;18.35;12.45;;;1.50;99.90;;;;;;5073949;28;20036;-67
2023/01/20 05:11:42;;;;;;;13.75;9.80;;;1.50;99.90;;;;;;5073660;28;20457;-67
2023/01/20 05:14:09;;;;;;;17.13;11.93;;;1.50;99.90;;;;;;5073359;28;20098;-67
2023/01/20 05:16:34;;;;;;;17.02;11.45;;;1.50;99.90;;;;;;5073568;28;20119;-67
2023/01/20 05:19:00;;;;;;;15.50;11.43;;;1.50;99.90;;;;;;5073448;28;20161;-67
2023/01/20 05:21:26;;;;;;;13.32;10.07;;;1.50;99.90;;;;;;5074238;28;20052;-67
2023/01/20 05:23:56;;;;;;;15.55;11.48;;;1.50;99.90;;;;;;5073767;28;20087;-67
2023/01/20 05:26:23;;;;;;;16.92;11.77;;;1.50;99.90;;;;;;5073675;28;20048;-67
2023/01/20 05:28:48;;;;;;;17.63;11.25;;;1.50;99.90;;;;;;5040798;28;20084;-67
2023/01/20 05:31:15;;;;;;;13.70;10.02;;;1.50;99.90;;;;;;5073433;28;20087;-67
2023/01/20 05:33:41;;;;;;;20.25;13.07;;;1.40;99.90;;;;;;5055914;28;20102;-67
2023/01/20 05:36:08;;;;;;;18.23;11.98;;;1.80;99.90;;;;;;5073505;28;20084;-67
2023/01/20 05:38:34;;;;;;;17.13;11.20;;;1.50;99.90;;;;;;5055713;28;20045;-67
2023/01/20 05:41:05;;;;;;;18.83;13.52;;;1.50;99.90;;;;;;5055418;28;20150;-68
2023/01/20 05:43:31;;;;;;;19.25;11.60;;;1.50;99.90;;;;;;5073309;28;20051;-67
2023/01/20 05:45:57;;;;;;;16.17;11.38;;;1.50;99.90;;;;;;5073767;28;20040;-67
2023/01/20 05:48:23;;;;;;;18.25;12.15;;;1.90;99.90;;;;;;5074079;28;20048;-67
2023/01/20 05:50:48;;;;;;;14.02;11.60;;;1.60;99.90;;;;;;5077184;28;20060;-67
2023/01/20 05:53:14;;;;;;;18.05;11.48;;;1.60;99.90;;;;;;5077414;28;20048;-67
2023/01/20 05:55:40;;;;;;;17.25;11.30;;;1.90;99.90;;;;;;5077209;28;20449;-67
2023/01/20 05:58:06;;;;;;;18.10;11.85;;;1.60;99.90;;;;;;5059235;28;20041;-67
2023/01/20 06:00:32;;;;;;;15.60;11.63;;;2.00;99.90;;;;;;5076784;28;20039;-67
2023/01/20 06:02:58;;;;;;;17.77;11.95;;;1.60;99.90;;;;;;5076944;28;20044;-67
2023/01/20 06:05:24;;;;;;;19.75;12.18;;;1.60;99.90;;;;;;5076608;28;20497;-67
2023/01/20 06:07:50;;;;;;;17.85;11.95;;;2.20;99.90;;;;;;5076810;28;20087;-67
2023/01/20 06:10:16;;;;;;;17.08;12.27;;;2.00;99.90;;;;;;5059707;28;20147;-67
2023/01/20 06:12:42;;;;;;;15.98;12.20;;;1.60;99.90;;;;;;5076331;28;20047;-68
2023/01/20 06:15:09;;;;;;;17.60;11.90;;;1.50;99.90;;;;;;5076373;28;20037;-67
2023/01/20 06:17:35;;;;;;;17.83;11.23;;;1.50;99.90;;;;;;5058830;28;20118;-67
2023/01/20 06:20:01;;;;;;;18.48;11.80;;;1.90;99.90;;;;;;5077336;28;20032;-67
2023/01/20 06:22:27;;;;;;;17.38;11.57;;;2.40;99.90;;;;;;5077376;28;20048;-67
2023/01/20 06:24:52;;;;;;;16.05;11.70;;;1.50;99.90;;;;;;5077004;28;20048;-67
2023/01/20 06:27:18;;;;;;;17.52;13.30;;;1.50;99.90;;;;;;5058974;28;20048;-67
2023/01/20 06:29:44;;;;;;;16.00;10.82;;;1.50;99.90;;;;;;5076485;28;20042;-67
2023/01/20 06:32:10;;;;;;;17.13;11.15;;;1.60;99.90;;;;;;5076460;28;20048;-67
2023/01/20 06:34:36;;;;;;;21.85;13.02;;;1.50;99.90;;;;;;5058877;28;20051;-68
2023/01/20 06:37:02;;;;;;;18.17;12.13;;;1.50;99.90;;;;;;5025460;28;20040;-67
2023/01/20 06:39:28;;;;;;;18.83;11.73;;;1.50;99.90;;;;;;5076574;28;20368;-67
2023/01/20 06:41:58;;;;;;;17.80;13.88;;;2.10;99.90;;;;;;5076198;28;20123;-67
2023/01/20 06:44:24;;;;;;;19.77;12.73;;;1.50;99.90;;;;;;5058613;28;20419;-67
2023/01/20 06:46:50;;;;;;;21.23;14.15;;;1.60;99.90;;;;;;5058270;28;20076;-67
2023/01/20 06:49:16;;;;;;;20.40;13.93;;;2.10;99.90;;;;;;5057814;28;20099;-68
2023/01/20 06:51:42;;;;;;;18.85;13.38;;;1.50;99.90;;;;;;5075612;28;20532;-67
2023/01/20 06:54:08;;;;;;;24.17;14.50;;;1.90;99.90;;;;;;5058186;28;20127;-67
2023/01/20 06:56:34;;;;;;;23.42;14.48;;;1.50;99.90;;;;;;5075666;28;20043;-67
2023/01/20 06:59:00;;;;;;;19.63;13.23;;;1.50;99.90;;;;;;5075657;28;20040;-67
2023/01/20 07:01:28;;;;;;;18.70;13.43;;;1.70;99.90;;;;;;5059070;28;20508;-67
2023/01/20 07:03:54;;;;;;;22.75;14.15;;;1.40;99.90;;;;;;5075801;28;20040;-67
2023/01/20 07:06:39;;;;;;;18.95;12.48;;;1.80;99.90;;;;;;5075801;28;20044;-67
2023/01/20 07:09:08;;;;;;;21.35;15.90;;;1.60;99.90;;;;;;5076620;28;20365;-67
2023/01/20 07:11:34;;;;;;;20.80;14.07;;;1.50;99.90;;;;;;5057846;28;20079;-67
2023/01/20 07:14:01;;;;;;;25.02;14.27;;;1.50;99.90;;;;;;5075455;28;20376;-67
2023/01/20 07:16:26;;;;;;;23.52;14.50;;;1.70;99.90;;;;;;5075118;28;20116;-68
2023/01/20 07:18:53;;;;;;;26.60;16.17;;;1.50;99.90;;;;;;5057472;28;20119;-67
2023/01/20 07:21:19;;;;;;;23.40;15.07;;;2.10;99.90;;;;;;5075057;28;20110;-68
2023/01/20 07:23:46;;;;;;;22.10;14.32;;;1.50;99.90;;;;;;5075102;28;20063;-68
2023/01/20 07:26:14;;;;;;;22.05;14.50;;;1.50;99.90;;;;;;5074946;28;20036;-68
2023/01/20 07:28:40;;;;;;;27.52;15.90;;;2.30;99.90;;;;;;5074939;28;20056;-68
2023/01/20 07:31:14;;;;;;;22.48;14.43;;;1.60;99.90;;;;;;5057399;28;20048;-68
2023/01/20 07:33:40;;;;;;;23.95;15.32;;;1.50;99.90;;;;;;5075092;28;20051;-68
2023/01/20 07:36:07;;;;;;;24.05;15.70;;;1.50;99.90;;;;;;5075176;28;20044;-67
2023/01/20 07:38:33;;;;;;;27.27;16.08;;;1.50;99.90;;;;;;5075074;28;20040;-67
2023/01/20 07:41:00;;;;;;;24.77;16.60;;;1.50;99.90;;;;;;5074980;28;20036;-67
2023/01/20 07:43:26;;;;;;;22.67;17.42;;;1.50;99.90;;;;;;5074950;28;20078;-67
2023/01/20 07:45:59;;;;;;;22.13;15.32;;;1.50;99.90;;;;;;5074863;28;20082;-68
2023/01/20 07:48:26;;;;;;;26.98;17.70;;;1.50;99.90;;;;;;5074529;28;20048;-67
2023/01/20 07:51:03;;;;;;;23.30;16.30;;;1.70;99.90;;;;;;5073824;28;20056;-67
2023/01/20 07:53:33;;;;;;;24.38;16.88;;;1.60;99.90;;;;;;5074291;28;20052;-67
2023/01/20 07:56:03;;;;;;;25.67;16.75;;;1.60;99.90;;;;;;5039712;28;20099;-67
2023/01/20 07:58:29;;;;;;;26.17;16.80;;;1.60;99.90;;;;;;5056259;28;20040;-68
2023/01/20 08:00:55;;;;;;;23.52;17.13;;;2.00;99.90;;;;;;5073021;28;20174;-67
2023/01/20 08:03:22;;;;;;;24.10;16.63;;;1.60;99.90;;;;;;5056231;28;20040;-67
2023/01/20 08:05:47;;;;;;;22.75;16.17;;;2.00;99.90;;;;;;5073606;28;20045;-67
2023/01/20 08:08:13;;;;;;;26.95;17.27;;;1.70;99.90;;;;;;5073336;28;20062;-68
2023/01/20 08:10:39;;;;;;;26.52;16.40;;;1.70;99.90;;;;;;5073602;28;20123;-68
2023/01/20 08:13:04;;;;;;;24.83;16.92;;;1.70;99.90;;;;;;5072671;28;20044;-68
2023/01/20 08:15:30;;;;;;;24.98;16.95;;;1.90;99.90;;;;;;5073075;28;20452;-68
2023/01/20 08:17:58;;;;;;;23.15;16.75;;;0.50;99.90;;;;;;5073620;28;20049;-68
2023/01/20 08:20:23;;;;;;;29.88;17.40;;;1.70;99.90;;;;;;5056075;28;20044;-68
2023/01/20 08:22:49;;;;;;;29.85;17.35;;;1.80;99.90;;;;;;5072872;28;20075;-68
2023/01/20 08:25:15;;;;;;;29.50;17.33;;;1.80;99.90;;;;;;5073242;28;20036;-68
2023/01/20 08:27:41;;;;;;;30.90;18.92;;;1.80;99.90;;;;;;5056057;28;20177;-68
2023/01/20 08:30:08;;;;;;;23.75;16.55;;;1.80;99.90;;;;;;5074380;28;20044;-68
2023/01/20 08:32:33;;;;;;;27.42;17.67;;;1.80;99.90;;;;;;5075386;28;20047;-67
2023/01/20 08:34:59;;;;;;;30.70;18.10;;;1.80;99.90;;;;;;5075591;28;20045;-67
2023/01/20 08:37:25;;;;;;;25.55;16.70;;;1.90;99.90;;;;;;5059402;28;20442;-67
2023/01/20 08:39:51;;;;;;;26.33;17.10;;;1.90;99.90;;;;;;5060113;28;20457;-67
2023/01/20 08:42:16;;;;;;;28.10;16.67;;;1.90;99.90;;;;;;5074786;28;20044;-66
2023/01/20 08:44:42;;;;;;;27.95;17.30;;;2.00;99.90;;;;;;5056393;28;20051;-67
2023/01/20 08:47:08;;;;;;;27.90;17.80;;;2.40;99.90;;;;;;5074167;28;20036;-66
2023/01/20 08:49:34;;;;;;;25.55;17.02;;;2.00;99.90;;;;;;5075152;28;20098;-68
2023/01/20 08:51:59;;;;;;;26.27;16.80;;;2.60;99.90;;;;;;5073927;28;20451;-67
2023/01/20 08:54:28;;;;;;;23.13;16.75;;;2.50;99.90;;;;;;5073878;28;20128;-67
2023/01/20 08:56:53;;;;;;;28.20;18.30;;;2.10;99.90;;;;;;5040078;28;20044;-67
2023/01/20 08:59:20;;;;;;;30.48;19.05;;;2.00;99.90;;;;;;5073483;28;20071;-68
2023/01/20 09:01:46;;;;;;;28.58;16.52;;;2.10;99.90;;;;;;5074485;28;20098;-68
2023/01/20 09:04:12;;;;;;;27.13;17.15;;;2.60;99.90;;;;;;5073029;28;20477;-68
2023/01/20 09:06:45;;;;;;;28.23;16.45;;;2.10;99.90;;;;;;5073056;28;20072;-68
2023/01/20 09:09:13;;;;;;;30.95;17.75;;;2.10;99.90;;;;;;5073130;28;20072;-67
2023/01/20 09:11:39;;;;;;;28.55;17.92;;;2.10;99.90;;;;;;5054593;28;20041;-68
2023/01/20 09:14:05;;;;;;;28.33;18.48;;;2.10;99.90;;;;;;5072328;28;20465;-68
2023/01/20 09:16:30;;;;;;;26.85;17.02;;;2.10;99.90;;;;;;5055150;28;20098;-68
2023/01/20 09:18:56;;;;;;;28.15;17.90;;;2.30;99.90;;;;;;5072896;28;20131;-68
2023/01/20 09:21:22;;;;;;;28.27;17.20;;;2.10;99.90;;;;;;5055127;28;20080;-68
2023/01/20 09:23:47;;;;;;;28.83;16.23;;;2.10;99.90;;;;;;5073927;28;20162;-68
2023/01/20 09:26:14;;;;;;;25.98;17.40;;;2.20;99.90;;;;;;5076953;28;20492;-68
2023/01/20 09:28:43;;;;;;;30.20;17.17;;;2.20;99.90;;;;;;5077747;28;20085;-67
2023/01/20 09:31:09;;;;;;;29.20;16.83;;;2.10;99.90;;;;;;5076777;28;20041;-67
2023/01/20 09:33:37;;;;;;;22.98;16.70;;;2.20;99.90;;;;;;5076993;28;20045;-66
2023/01/20 09:36:05;;;;;;;28.40;17.50;;;2.20;99.90;;;;;;5076342;28;20464;-68
2023/01/20 09:44:28;;;;;;;30.88;18.30;;;2.30;99.90;;;;;;5076761;28;20048;-68
2023/01/20 09:47:26;;;;;;;26.38;19.15;;;2.30;99.90;;;;;;5076405;28;20051;-68
2023/01/20 09:53:20;;;;;;;34.13;19.15;;;2.30;99.90;;;;;;5076058;28;20048;-68
2023/01/20 09:55:55;;;;;;;32.15;18.70;;;2.30;99.90;;;;;;5063253;28;20133;-68
2023/01/20 09:58:52;;;;;;;27.20;17.65;;;2.30;99.90;;;;;;5076936;28;20036;-67
2023/01/20 10:01:44;;;;;;;24.70;18.83;;;2.30;99.90;;;;;;5058949;28;20076;-67
2023/01/20 10:04:51;;;;;;;33.50;19.95;;;2.40;99.90;;;;;;5071720;28;20060;-68
2023/01/20 10:07:49;;;;;;;29.73;19.58;;;2.30;99.90;;;;;;4958592;28;20091;-67
2023/01/20 10:10:36;;;;;;;36.70;20.42;;;2.30;99.90;;;;;;5075897;28;20055;-68
2023/01/20 10:13:29;;;;;;;33.60;20.00;;;2.30;99.90;;;;;;5058761;28;20368;-67
2023/01/20 10:15:56;;;;;;;32.97;20.63;;;2.20;99.90;;;;;;5076309;28;20087;-67
2023/01/20 10:18:47;;;;;;;37.72;20.30;;;2.30;99.90;;;;;;5075318;28;20083;-67
2023/01/20 10:21:21;;;;;;;30.77;18.27;;;2.30;99.90;;;;;;5062182;28;20132;-66
2023/01/20 10:24:02;;;;;;;36.08;20.52;;;2.40;99.90;;;;;;5075721;28;20044;-67
2023/01/20 10:26:37;;;;;;;35.08;21.10;;;2.60;99.90;;;;;;5076118;28;20040;-67
2023/01/20 10:29:08;;;;;;;36.70;20.77;;;2.40;99.90;;;;;;5075309;28;20453;-67
2023/01/20 10:31:41;;;;;;;36.60;19.17;;;3.00;99.90;;;;;;5075802;28;20047;-67
2023/01/20 10:34:17;;;;;;;34.65;18.85;;;2.70;99.90;;;;;;5075758;28;20052;-67
2023/01/20 10:36:49;;;;;;;32.63;19.83;;;2.50;99.90;;;;;;5058043;28;20040;-67
2023/01/20 10:39:29;;;;;;;28.95;18.52;;;2.50;99.90;;;;;;5075662;28;20116;-67
2023/01/20 10:42:03;;;;;;;37.28;19.88;;;2.50;99.90;;;;;;5075525;28;20044;-67
2023/01/20 10:44:34;;;;;;;32.83;20.02;;;2.50;99.90;;;;;;5075881;28;20044;-67
2023/01/20 10:47:02;;;;;;;29.98;20.15;;;2.50;99.90;;;;;;5075196;28;20045;-67
2023/01/20 10:49:42;;;;;;;30.02;19.17;;;2.50;99.90;;;;;;5076524;28;20048;-67
2023/01/20 10:52:17;;;;;;;31.10;20.33;;;2.50;99.90;;;;;;5075773;28;20365;-67
2023/01/20 10:55:10;;;;;;;34.75;19.13;;;2.50;99.90;;;;;;5075255;28;20461;-67
2023/01/20 10:57:37;;;;;;;32.88;21.17;;;2.40;99.90;;;;;;5075762;28;20094;-67
2023/01/20 11:00:07;;;;;;;37.88;19.38;;;2.50;99.90;;;;;;5074984;28;20510;-67
2023/01/20 11:02:36;;;;;;;32.15;18.73;;;2.50;99.90;;;;;;5024673;28;20040;-67
2023/01/20 11:05:19;;;;;;;29.83;17.60;;;3.00;99.90;;;;;;5041665;28;20070;-67
2023/01/20 11:07:46;;;;;;;37.50;20.60;;;2.50;99.90;;;;;;5075344;28;20040;-67
2023/01/20 11:10:23;;;;;;;34.35;18.98;;;2.60;99.90;;;;;;5074895;28;20080;-67
2023/01/20 11:12:53;;;;;;;31.98;20.20;;;2.60;99.90;;;;;;5057913;28;20044;-67
2023/01/20 11:15:27;;;;;;;29.08;18.83;;;2.60;99.90;;;;;;5041316;28;20057;-67
2023/01/20 11:18:14;;;;;;;35.75;19.02;;;2.60;99.90;;;;;;5074573;28;20067;-67
2023/01/20 11:20:45;;;;;;;32.15;17.70;;;2.60;99.90;;;;;;5074590;28;20040;-67
2023/01/20 11:23:37;;;;;;;34.67;18.83;;;2.60;99.90;;;;;;5074286;28;20056;-67
2023/01/20 11:26:33;;;;;;;36.53;18.08;;;2.60;99.90;;;;;;5074978;28;20055;-67
2023/01/20 11:29:00;;;;;;;39.92;20.33;;;2.60;99.90;;;;;;5057053;28;20426;-67
2023/01/20 11:31:41;;;;;;;33.30;19.70;;;2.60;99.90;;;;;;5073770;28;20507;-67
2023/01/20 11:34:25;;;;;;;31.05;19.20;;;2.90;99.90;;;;;;5074516;28;20048;-67
2023/01/20 11:37:19;;;;;;;35.53;19.92;;;2.80;99.90;;;;;;5074451;28;20052;-67
2023/01/20 11:39:57;;;;;;;35.05;20.50;;;2.70;99.90;;;;;;5074885;28;20036;-67
2023/01/20 11:42:41;;;;;;;35.03;18.70;;;2.70;99.90;;;;;;5074849;28;20053;-67
2023/01/20 11:45:33;;;;;;;34.70;19.00;;;2.70;99.90;;;;;;5074815;28;20043;-67
2023/01/20 11:48:00;;;;;;;28.63;17.92;;;2.70;99.90;;;;;;5073568;28;20051;-67
2023/01/20 11:50:48;;;;;;;33.05;19.85;;;2.80;99.90;;;;;;5074562;28;20040;-67
2023/01/20 11:53:32;;;;;;;30.92;18.55;;;2.70;99.90;;;;;;5057083;28;20128;-67
2023/01/20 11:56:23;;;;;;;31.85;19.08;;;2.60;99.90;;;;;;5074300;28;20049;-67
2023/01/20 11:58:57;;;;;;;31.38;19.10;;;2.60;99.90;;;;;;5056848;28;20055;-67
2023/01/20 12:01:28;;;;;;;28.35;18.60;;;2.70;99.90;;;;;;5074383;28;20108;-67
2023/01/20 12:04:15;;;;;;;30.95;17.65;;;2.70;99.90;;;;;;5074202;28;20508;-67
2023/01/20 12:07:08;;;;;;;28.38;16.75;;;2.70;99.90;;;;;;5074218;28;20051;-66
2023/01/20 12:09:37;;;;;;;36.97;19.13;;;2.70;99.90;;;;;;5074296;28;20044;-67
2023/01/20 12:12:21;;;;;;;30.98;16.67;;;2.80;99.90;;;;;;5074033;28;20095;-67
2023/01/20 12:15:09;;;;;;;24.02;15.45;;;2.70;99.90;;;;;;5073388;28;20083;-67
2023/01/20 12:17:48;;;;;;;29.48;17.90;;;2.80;99.90;;;;;;5074583;28;20044;-67
2023/01/20 12:20:20;;;;;;;35.25;19.23;;;2.80;99.90;;;;;;5073391;28;20033;-67
2023/01/20 12:23:07;;;;;;;33.00;18.25;;;2.80;99.90;;;;;;5073953;28;20051;-67
2023/01/20 12:25:42;;;;;;;27.65;17.33;;;2.90;99.90;;;;;;5073915;28;20128;-66
2023/01/20 12:28:59;;;;;;;34.40;17.48;;;3.20;99.90;;;;;;5073059;28;20427;-67
2023/01/20 12:31:26;;;;;;;31.05;17.77;;;2.90;99.90;;;;;;5058020;28;20044;-67
2023/01/20 12:33:59;;;;;;;32.50;17.55;;;2.90;99.90;;;;;;5073426;28;20123;-67
2023/01/20 12:36:56;;;;;;;34.63;19.10;;;2.80;99.90;;;;;;5056203;28;20048;-67
2023/01/20 12:39:49;;;;;;;32.53;17.77;;;2.80;99.90;;;;;;5072983;28;20154;-67
2023/01/20 12:42:38;;;;;;;25.23;14.55;;;2.80;99.90;;;;;;5073120;28;20101;-67
2023/01/20 12:45:28;;;;;;;31.95;18.98;;;2.80;99.90;;;;;;5073595;28;20051;-67
2023/01/20 12:48:09;;;;;;;30.75;18.95;;;2.80;99.90;;;;;;5073276;28;20056;-67
2023/01/20 12:51:03;;;;;;;27.42;17.42;;;2.80;99.90;;;;;;5074029;28;20052;-67
2023/01/20 12:53:54;;;;;;;34.90;19.10;;;2.80;99.90;;;;;;5073882;28;20040;-67
2023/01/20 12:56:51;;;;;;;34.15;19.10;;;2.80;99.90;;;;;;5055999;28;20404;-67
2023/01/20 12:59:44;;;;;;;36.72;18.75;;;2.70;99.90;;;;;;5073274;28;20044;-67
2023/01/20 13:02:37;;;;;;;29.92;17.23;;;2.70;99.90;;;;;;5055849;28;20074;-67
2023/01/20 13:05:13;;;;;;;33.35;18.20;;;2.80;99.90;;;;;;5073128;28;20048;-67
2023/01/20 13:08:04;;;;;;;32.97;17.63;;;2.80;99.90;;;;;;5055824;28;20058;-67
2023/01/20 13:10:38;;;;;;;30.95;16.50;;;2.80;99.90;;;;;;5073052;28;20125;-67
2023/01/20 13:13:04;;;;;;;29.25;17.50;;;2.90;99.90;;;;;;5073262;28;20080;-67
2023/01/20 13:15:43;;;;;;;27.38;16.58;;;2.80;99.90;;;;;;5072840;28;20183;-67